LFQQLFOJ

Guest
Details From LFQQ - Lille Lesquin
To LFOJ - BRICY
Flight Number -
Tags generated
Created
Modified
Stats Distance 164 nm / 303 km
Max Altitude 20,000 ft / 6,096 m
Waypoints 3
Social Downloads 0
Likes 0
Share VATSIM

Download

Looking for another format? Having issues loading an existing format? Contact us
Advertisement - Login to hide

Notes

Basic altitude profile: - Ascent Rate: 2500ft/min - Ascent Speed: 250kts - Cruise Altitude: 35000ft - Cruise Speed: 420kts - Descent Rate: 1500ft/min - Descent Speed: 250kts Options: - Use NATs: yes - Use PACOTS: yes - Use low airways: yes - Use high airways: yes

Route

LFQQ MTD LFOJ

ID Type Via Altitude Latitude Longitude Leg Dist Tot Dist Heading (true) Name
O LFQQ APT - 0 ft / 0 m 50.56633˚ 3.09538˚ - 0 nm - Lille Lesquin
MTD VOR - 20,000 ft / 6,096 m 49.55264˚ 2.48947˚ 65 nm 65 nm 201° / 201° MONTDIDIER VOR
O LFOJ APT - 0 ft / 0 m 47.98773˚ 1.76063˚ 98 nm 163 nm 197° / 197° BRICY

Altitude Profile

Advertisement - Login to hide

Weather


0- 5 10 15 20 25 30 35+ Temperature / ° C

Clouds and Precipitation
Forecast for 2017-12-12 00:00 UTC. Updated 2 hours ago

Ground ~20,000 ft ~40,000 ft Winds

LFQQ

Details ICAO LFQQ (LIL)
Name Lille Lesquin
Region France
Timezone Europe/Paris (UTC+1.0)
Stats Elevation 156 ft / 48 m (AMSL)
Location 50.566335° 3.095384°
Runways 2
Magnetic Variation 0.703° E

METAR

LFQQ 112100Z AUTO 32011KT 9999 FEW007 BKN020 BKN050 02/00 Q0988 TEMPO 3000 SHSNRA BKN015CB

Decode

TAF

TAF LFQQ 111700Z 1118/1224 36020G30KT 3000 SN BKN005 OVC012 BECMG 1118/1120 36013KT 9999 NSW BKN012 OVC030 BECMG 1120/1122 27006KT NSC TEMPO 1122/1205 3000 SHSNRA BKN015CB

Decode

Departure Runways

ID Width Length Bearing (true) Bearing (mag) Surface Threshold Offset Overrun Length
02 98 ft / 30 m 5,168 ft / 1,575 m 14.83° 14.13° Asphalt 0 ft / 0 m 0 ft / 0 m
08 146 ft / 45 m 9,250 ft / 2,819 m 77.36° 76.66° Asphalt 0 ft / 0 m 0 ft / 0 m
20 98 ft / 30 m 5,168 ft / 1,575 m 194.83° 194.13° Asphalt 0 ft / 0 m 0 ft / 0 m
26 146 ft / 45 m 9,250 ft / 2,819 m 257.39° 256.69° Asphalt 918 ft / 280 m 0 ft / 0 m

LFOJ

Details ICAO LFOJ (ORE)
Name BRICY
Region France
Timezone Europe/Paris (UTC+1.0)
Stats Elevation 412 ft / 126 m (AMSL)
Location 47.987727° 1.760625°
Runways 1
Magnetic Variation 0.464° E

METAR

LFOJ 112100Z AUTO 27009KT 9999 OVC024 04/02 Q0994

Decode

TAF

TAF LFOJ 111628Z 1116/1215 CNL

Decode

Destination Runways

ID Width Length Bearing (true) Bearing (mag) Surface Threshold Offset Overrun Length
07 148 ft / 45 m 7,868 ft / 2,398 m 69.26° 68.80° Asphalt 0 ft / 0 m 0 ft / 0 m
25 148 ft / 45 m 7,868 ft / 2,398 m 249.28° 248.82° Asphalt 0 ft / 0 m 0 ft / 0 m

Approach Navaids

Runway Type Ident Frequency Range Bearing (true) Bearing (mag) Slope Elevation
25 Localiser OAN 111.30 MHz 18 nm / 33 km 249.25° 248.79° - 412 ft / 126 m (AMSL)
25 Glidescope OAN 111.30 MHz 10 nm / 19 km 249.27° 248.80° 2.50° 412 ft / 126 m (AMSL)